createdAt,value
2022-11-21T00:00:54.473Z,998.7
2022-11-21T00:01:54.588Z,998.8
2022-11-21T00:02:54.472Z,998.8
2022-11-21T00:03:54.488Z,998.8
2022-11-21T00:04:54.496Z,998.8
2022-11-21T00:05:54.506Z,998.8
2022-11-21T00:06:54.525Z,998.8
2022-11-21T00:07:54.526Z,998.8
2022-11-21T00:08:54.542Z,998.7
2022-11-21T00:09:54.553Z,998.7
2022-11-21T00:10:54.566Z,998.7
2022-11-21T00:11:54.580Z,998.8
2022-11-21T00:12:54.583Z,998.8
2022-11-21T00:13:54.595Z,998.7
2022-11-21T00:14:54.606Z,998.8
2022-11-21T00:15:54.615Z,998.8
2022-11-21T00:16:57.723Z,998.7
2022-11-21T00:17:54.632Z,998.7
2022-11-21T00:18:54.632Z,998.7
2022-11-21T00:19:54.663Z,998.7
2022-11-21T00:20:54.664Z,998.7
2022-11-21T00:21:54.674Z,998.7
2022-11-21T00:22:54.684Z,998.7
2022-11-21T00:23:54.698Z,998.7
2022-11-21T00:24:54.707Z,998.6
2022-11-21T00:25:54.718Z,998.7
2022-11-21T00:26:54.733Z,998.6
2022-11-21T00:27:54.744Z,998.6
2022-11-21T00:28:54.758Z,998.7
2022-11-21T00:29:54.762Z,998.7
2022-11-21T00:30:54.815Z,998.6
2022-11-21T00:31:54.788Z,998.7
2022-11-21T00:32:54.803Z,998.6
2022-11-21T00:33:54.805Z,998.6
2022-11-21T00:34:54.819Z,998.7
2022-11-21T00:35:54.843Z,998.6
2022-11-21T00:36:54.849Z,998.5
2022-11-21T00:37:54.871Z,998.5
2022-11-21T00:38:54.881Z,998.6
2022-11-21T00:39:54.899Z,998.6
2022-11-21T00:40:54.912Z,998.6
2022-11-21T00:41:54.924Z,998.5
2022-11-21T00:42:54.939Z,998.5
2022-11-21T00:43:54.950Z,998.5
2022-11-21T00:44:54.959Z,998.5
2022-11-21T00:45:54.974Z,998.4
2022-11-21T00:46:54.989Z,998.5
2022-11-21T00:47:55.002Z,998.4
2022-11-21T00:48:55.015Z,998.4
2022-11-21T00:49:55.031Z,998.4
2022-11-21T00:50:55.046Z,998.4
2022-11-21T00:51:55.062Z,998.4
2022-11-21T00:52:55.075Z,998.4
2022-11-21T00:53:55.087Z,998.4
2022-11-21T00:54:55.102Z,998.4
2022-11-21T00:55:55.109Z,998.4
2022-11-21T00:56:55.114Z,998.4
2022-11-21T00:57:55.126Z,998.4
2022-11-21T00:58:55.127Z,998.3
2022-11-21T00:59:55.136Z,998.3
2022-11-21T01:00:55.229Z,998.3
2022-11-21T01:01:55.170Z,998.4
2022-11-21T01:02:55.185Z,998.3
2022-11-21T01:03:55.201Z,998.3
2022-11-21T01:04:55.212Z,998.3
2022-11-21T01:05:55.203Z,998.3
2022-11-21T01:06:55.209Z,998.3
2022-11-21T01:07:55.225Z,998.3
2022-11-21T01:08:55.240Z,998.3
2022-11-21T01:09:55.254Z,998.3
2022-11-21T01:10:55.269Z,998.3
2022-11-21T01:11:55.275Z,998.3
2022-11-21T01:12:55.291Z,998.3
2022-11-21T01:13:55.292Z,998.3
2022-11-21T01:14:55.308Z,998.3
2022-11-21T01:15:55.320Z,998.4
2022-11-21T01:16:55.329Z,998.4
2022-11-21T01:17:55.334Z,998.3
2022-11-21T01:18:55.348Z,998.3
2022-11-21T01:19:55.349Z,998.4
2022-11-21T01:20:55.366Z,998.4
2022-11-21T01:21:55.383Z,998.4
2022-11-21T01:22:55.389Z,998.3
2022-11-21T01:23:55.391Z,998.3
2022-11-21T01:24:55.401Z,998.4
2022-11-21T01:25:55.410Z,998.4
2022-11-21T01:26:55.422Z,998.3
2022-11-21T01:27:55.431Z,998.3
2022-11-21T01:28:55.456Z,998.3
2022-11-21T01:29:55.450Z,998.4
2022-11-21T01:30:55.488Z,998.3
2022-11-21T01:31:55.480Z,998.3
2022-11-21T01:32:55.493Z,998.3
2022-11-21T01:33:55.501Z,998.3
2022-11-21T01:34:55.517Z,998.3
2022-11-21T01:35:55.530Z,998.4
2022-11-21T01:36:55.541Z,998.4
2022-11-21T01:37:55.549Z,998.3
2022-11-21T01:55:56.110Z,998.5
2022-11-21T01:56:55.757Z,998.4
2022-11-21T01:57:55.780Z,998.3
2022-11-21T01:58:55.793Z,998.4
2022-11-21T01:59:55.813Z,998.5
2022-11-21T02:00:55.885Z,998.5
2022-11-21T02:01:55.846Z,998.3
2022-11-21T02:02:55.853Z,998.4
2022-11-21T02:03:55.868Z,998.4
2022-11-21T02:04:55.883Z,998.4
2022-11-21T02:05:55.881Z,998.4
2022-11-21T02:06:55.898Z,998.4
2022-11-21T02:07:55.911Z,998.5
2022-11-21T02:08:55.932Z,998.4
2022-11-21T02:09:55.956Z,998.4
2022-11-21T02:10:55.970Z,998.4
2022-11-21T02:11:55.973Z,998.4
2022-11-21T02:12:56.003Z,998.4
2022-11-21T02:13:56.010Z,998.4
2022-11-21T02:14:56.023Z,998.4
2022-11-21T02:15:56.042Z,998.5
2022-11-21T02:16:56.056Z,998.5
2022-11-21T02:17:56.078Z,998.5
2022-11-21T02:18:56.078Z,998.5
2022-11-21T02:19:56.086Z,998.5
2022-11-21T02:20:56.091Z,998.5
2022-11-21T02:21:56.109Z,998.5
2022-11-21T02:22:56.127Z,998.5
2022-11-21T02:24:00.699Z,998.5
2022-11-21T02:24:56.144Z,998.5
2022-11-21T02:25:56.158Z,998.4
2022-11-21T02:26:56.168Z,998.5
2022-11-21T02:27:56.173Z,998.5
2022-11-21T02:28:56.183Z,998.5
2022-11-21T02:29:56.187Z,998.4
2022-11-21T02:30:56.198Z,998.4
2022-11-21T02:31:56.197Z,998.5
2022-11-21T02:32:56.218Z,998.4
2022-11-21T02:33:56.234Z,998.4
2022-11-21T02:34:56.241Z,998.4
2022-11-21T02:35:56.260Z,998.4
2022-11-21T02:36:56.262Z,998.4
2022-11-21T02:37:56.276Z,998.3
2022-11-21T02:38:56.283Z,998.3
2022-11-21T02:39:56.290Z,998.3
2022-11-21T02:40:56.309Z,998.3
2022-11-21T02:41:56.313Z,998.3
2022-11-21T02:42:56.328Z,998.3
2022-11-21T02:43:56.342Z,998.3
2022-11-21T02:44:56.358Z,998.3
2022-11-21T02:45:56.387Z,998.4
2022-11-21T02:46:56.387Z,998.3
2022-11-21T02:48:04.379Z,998.3
2022-11-21T02:48:56.406Z,998.3
2022-11-21T02:49:56.417Z,998.3
2022-11-21T02:50:56.436Z,998.4
2022-11-21T02:51:56.451Z,998.3
2022-11-21T02:52:56.462Z,998.3
2022-11-21T02:53:56.477Z,998.3
2022-11-21T02:54:56.486Z,998.3
2022-11-21T02:55:56.965Z,998.3
2022-11-21T02:56:56.521Z,998.3
2022-11-21T02:58:05.061Z,998.3
2022-11-21T02:58:56.543Z,998.3
2022-11-21T02:59:56.555Z,998.2
2022-11-21T03:00:56.663Z,998.3
2022-11-21T03:01:56.563Z,998.3
2022-11-21T03:02:56.587Z,998.2
2022-11-21T03:03:56.598Z,998.2
2022-11-21T03:04:56.606Z,998.2
2022-11-21T03:05:56.630Z,998.2
2022-11-21T03:06:56.632Z,998.2
2022-11-21T03:07:56.648Z,998.2
2022-11-21T03:08:56.657Z,998.2
2022-11-21T03:09:56.677Z,998.1
2022-11-21T03:10:56.695Z,998.1
2022-11-21T03:11:56.704Z,998.1
2022-11-21T03:12:56.714Z,998.1
2022-11-21T03:13:56.723Z,998.0
2022-11-21T03:14:56.735Z,998.2
2022-11-21T03:15:56.747Z,998.2
2022-11-21T03:16:56.761Z,998.0
2022-11-21T03:17:56.775Z,998.0
2022-11-21T03:18:56.788Z,998.0
2022-11-21T03:19:56.806Z,998.0
2022-11-21T03:20:56.806Z,998.1
2022-11-21T03:21:56.815Z,998.1
2022-11-21T03:22:56.834Z,998.0
2022-11-21T03:23:56.841Z,998.1
2022-11-21T03:24:56.844Z,998.0
2022-11-21T03:25:56.851Z,998.0
2022-11-21T03:26:56.860Z,998.0
2022-11-21T03:27:56.871Z,998.0
2022-11-21T03:28:56.886Z,998.0
2022-11-21T03:29:56.897Z,998.0
2022-11-21T03:30:56.900Z,998.0
2022-11-21T03:31:56.913Z,998.0
2022-11-21T03:32:56.925Z,998.0
2022-11-21T03:33:56.931Z,998.0
2022-11-21T03:34:56.935Z,998.0
2022-11-21T03:35:56.954Z,998.0
2022-11-21T03:36:56.967Z,998.0
2022-11-21T03:37:56.975Z,998.0
2022-11-21T03:38:56.982Z,998.0
2022-11-21T03:39:57.001Z,998.0
2022-11-21T03:40:57.018Z,998.0
2022-11-21T03:41:57.032Z,998.0
2022-11-21T03:42:57.048Z,998.0
2022-11-21T03:43:57.050Z,998.0
2022-11-21T03:44:57.059Z,998.0
2022-11-21T03:45:57.076Z,998.0
2022-11-21T03:46:57.086Z,998.0
2022-11-21T03:47:57.103Z,998.0
2022-11-21T03:48:57.115Z,998.0
2022-11-21T03:49:57.121Z,998.1
2022-11-21T03:50:57.146Z,998.0
2022-11-21T03:51:57.154Z,998.1
2022-11-21T03:52:57.163Z,998.0
2022-11-21T03:53:57.233Z,998.0
2022-11-21T03:54:57.193Z,998.0
2022-11-21T03:55:57.209Z,998.0
2022-11-21T03:56:57.212Z,998.1
2022-11-21T03:57:57.236Z,998.0
2022-11-21T03:58:57.240Z,998.1
2022-11-21T03:59:57.261Z,998.0
2022-11-21T04:00:57.545Z,998.0
2022-11-21T04:01:57.387Z,998.1
2022-11-21T04:02:57.290Z,998.1
2022-11-21T04:03:57.310Z,998.2
2022-11-21T04:04:57.323Z,998.1
2022-11-21T04:05:57.338Z,998.2
2022-11-21T04:06:57.358Z,998.0
2022-11-21T04:07:57.372Z,998.1
2022-11-21T04:08:57.403Z,998.1
2022-11-21T04:09:57.411Z,998.0
2022-11-21T04:10:57.420Z,998.1
2022-11-21T04:11:57.442Z,998.1
2022-11-21T04:12:57.467Z,998.1
2022-11-21T04:13:57.465Z,998.1
2022-11-21T04:14:57.478Z,998.1
2022-11-21T04:15:57.504Z,998.1
2022-11-21T04:16:57.526Z,998.1
2022-11-21T04:17:57.534Z,998.2
2022-11-21T04:18:57.568Z,998.2
2022-11-21T04:19:57.551Z,998.2
2022-11-21T04:20:57.559Z,998.2
2022-11-21T04:21:57.563Z,998.3
2022-11-21T04:22:57.569Z,998.3
2022-11-21T04:23:57.579Z,998.2
2022-11-21T04:24:57.580Z,998.3
2022-11-21T04:25:57.597Z,998.2
2022-11-21T04:26:57.605Z,998.2
2022-11-21T04:27:57.621Z,998.2
2022-11-21T04:28:57.637Z,998.2
2022-11-21T04:29:57.644Z,998.3
2022-11-21T04:31:00.890Z,998.3
2022-11-21T04:31:57.674Z,998.2
2022-11-21T04:32:57.689Z,998.3
2022-11-21T04:33:57.704Z,998.3
2022-11-21T04:34:57.710Z,998.3
2022-11-21T04:35:57.715Z,998.3
2022-11-21T04:36:57.776Z,998.4
2022-11-21T04:37:57.739Z,998.3
2022-11-21T04:38:57.758Z,998.4
2022-11-21T04:39:57.787Z,998.4
2022-11-21T04:40:57.803Z,998.4
2022-11-21T04:41:57.819Z,998.4
2022-11-21T04:42:57.823Z,998.4
2022-11-21T04:43:57.844Z,998.3
2022-11-21T04:44:57.846Z,998.2
2022-11-21T04:45:57.855Z,998.3
2022-11-21T04:47:05.495Z,998.3
2022-11-21T04:47:57.877Z,998.3
2022-11-21T04:48:57.889Z,998.4
2022-11-21T04:49:57.906Z,998.4
2022-11-21T04:50:57.916Z,998.3
2022-11-21T04:51:57.914Z,998.3
2022-11-21T04:52:57.920Z,998.3
2022-11-21T04:53:57.948Z,998.3
2022-11-21T04:54:57.949Z,998.3
2022-11-21T04:55:57.968Z,998.3
2022-11-21T04:56:57.974Z,998.3
2022-11-21T04:57:57.998Z,998.3
2022-11-21T04:58:58.041Z,998.4
2022-11-21T04:59:58.017Z,998.4
2022-11-21T05:00:58.141Z,998.4
2022-11-21T05:01:58.062Z,998.4
2022-11-21T05:02:58.058Z,998.4
2022-11-21T05:03:58.173Z,998.3
2022-11-21T05:04:58.088Z,998.3
2022-11-21T05:05:58.093Z,998.4
2022-11-21T05:06:58.108Z,998.3
2022-11-21T05:07:58.116Z,998.3
2022-11-21T05:08:58.120Z,998.3
2022-11-21T05:09:58.138Z,998.4
2022-11-21T05:10:58.161Z,998.4
2022-11-21T05:11:58.165Z,998.3
2022-11-21T05:12:58.182Z,998.4
2022-11-21T05:13:58.203Z,998.4
2022-11-21T05:14:58.206Z,998.4
2022-11-21T05:15:58.217Z,998.4
2022-11-21T05:16:58.217Z,998.4
2022-11-21T05:17:58.228Z,998.5
2022-11-21T05:18:58.230Z,998.5
2022-11-21T05:19:58.238Z,998.4
2022-11-21T05:20:58.242Z,998.5
2022-11-21T05:21:58.261Z,998.5
2022-11-21T05:22:58.267Z,998.4
2022-11-21T05:23:58.290Z,998.4
2022-11-21T05:24:58.285Z,998.3
2022-11-21T05:25:58.304Z,998.3
2022-11-21T05:26:58.317Z,998.3
2022-11-21T05:27:58.333Z,998.3
2022-11-21T05:28:58.367Z,998.3
2022-11-21T05:29:58.357Z,998.3
2022-11-21T05:30:58.368Z,998.5
2022-11-21T05:31:58.375Z,998.4
2022-11-21T05:32:58.390Z,998.4
2022-11-21T05:33:58.401Z,998.4
2022-11-21T05:34:58.402Z,998.4
2022-11-21T05:35:58.412Z,998.3
2022-11-21T05:36:58.421Z,998.4
2022-11-21T05:37:58.436Z,998.3
2022-11-21T05:38:58.441Z,998.4
2022-11-21T05:39:58.445Z,998.4
2022-11-21T05:40:58.461Z,998.4
2022-11-21T05:42:03.495Z,998.4
2022-11-21T05:42:58.489Z,998.4
2022-11-21T05:43:58.490Z,998.4
2022-11-21T05:44:58.505Z,998.3
2022-11-21T05:45:58.527Z,998.3
2022-11-21T05:46:58.525Z,998.4
2022-11-21T05:47:58.528Z,998.3
2022-11-21T05:48:58.538Z,998.3
2022-11-21T05:49:58.555Z,998.2
2022-11-21T05:50:58.572Z,998.2
2022-11-21T05:51:58.579Z,998.1
2022-11-21T05:52:58.590Z,998.2
2022-11-21T05:53:58.599Z,998.2
2022-11-21T05:54:58.616Z,998.1
2022-11-21T05:55:58.629Z,998.0
2022-11-21T05:56:58.644Z,998.1
2022-11-21T05:57:58.652Z,998.2
2022-11-21T05:58:58.670Z,998.1
2022-11-21T05:59:58.674Z,998.2
2022-11-21T06:01:00.325Z,998.2
2022-11-21T06:01:58.706Z,998.2
2022-11-21T06:02:58.802Z,998.2
2022-11-21T06:03:58.736Z,998.3
2022-11-21T06:04:58.747Z,998.2
2022-11-21T06:05:58.758Z,998.2
2022-11-21T06:06:58.775Z,998.3
2022-11-21T06:07:58.787Z,998.2
2022-11-21T06:08:58.807Z,998.2
2022-11-21T06:09:58.809Z,998.3
2022-11-21T06:10:58.812Z,998.2
2022-11-21T06:11:58.820Z,998.2
2022-11-21T06:12:58.827Z,998.2
2022-11-21T06:13:58.849Z,998.2
2022-11-21T06:14:58.865Z,998.3
2022-11-21T06:15:58.885Z,998.2
2022-11-21T06:16:58.886Z,998.3
2022-11-21T06:17:58.912Z,998.3
2022-11-21T06:18:59.172Z,998.2
2022-11-21T06:19:58.931Z,998.2
2022-11-21T06:20:58.964Z,998.2
2022-11-21T06:21:58.964Z,998.2
2022-11-21T06:22:58.966Z,998.2
2022-11-21T06:23:59.003Z,998.2
2022-11-21T06:24:58.998Z,998.2
2022-11-21T06:25:59.029Z,998.3
2022-11-21T06:26:59.028Z,998.2
2022-11-21T06:27:59.036Z,998.2
2022-11-21T06:28:59.043Z,998.2
2022-11-21T06:29:59.048Z,998.2
2022-11-21T06:30:59.053Z,998.4
2022-11-21T06:31:59.065Z,998.3
2022-11-21T06:32:59.142Z,998.3
2022-11-21T06:33:59.089Z,998.2
2022-11-21T06:34:59.100Z,998.2
2022-11-21T06:35:59.122Z,998.2
2022-11-21T06:36:59.141Z,998.3
2022-11-21T06:37:59.144Z,998.3
2022-11-21T06:38:59.158Z,998.2
2022-11-21T06:39:59.173Z,998.2
2022-11-21T06:40:59.179Z,998.2
2022-11-21T06:41:59.183Z,998.2
2022-11-21T06:42:59.205Z,998.2
2022-11-21T06:43:59.221Z,998.2
2022-11-21T06:44:59.222Z,998.3
2022-11-21T06:45:59.260Z,998.3
2022-11-21T06:46:59.258Z,998.2
2022-11-21T06:47:59.252Z,998.2
2022-11-21T06:48:59.273Z,998.3
2022-11-21T06:49:59.286Z,998.3
2022-11-21T06:50:59.292Z,998.3
2022-11-21T06:51:59.294Z,998.3
2022-11-21T06:52:59.305Z,998.3
2022-11-21T06:53:59.464Z,998.2
2022-11-21T06:54:59.318Z,998.3
2022-11-21T06:55:59.326Z,998.2
2022-11-21T06:56:59.341Z,998.2
2022-11-21T06:57:59.351Z,998.2
2022-11-21T06:58:59.384Z,998.3
2022-11-21T06:59:59.384Z,998.3
2022-11-21T07:00:59.479Z,998.3
2022-11-21T07:01:59.453Z,998.3
2022-11-21T07:03:03.674Z,998.3
2022-11-21T07:03:59.435Z,998.4
2022-11-21T07:04:59.435Z,998.4
2022-11-21T07:05:59.455Z,998.3
2022-11-21T07:06:59.699Z,998.3
2022-11-21T07:07:59.550Z,998.3
2022-11-21T07:09:59.504Z,998.4
2022-11-21T07:11:24.399Z,998.3
2022-11-21T07:11:59.523Z,998.3
2022-11-21T07:12:59.553Z,998.3
2022-11-21T07:13:59.548Z,998.4
2022-11-21T07:14:59.573Z,998.4
2022-11-21T07:15:59.586Z,998.4
2022-11-21T07:16:59.582Z,998.4
2022-11-21T07:17:59.597Z,998.3
2022-11-21T07:18:59.622Z,998.4
2022-11-21T07:19:59.633Z,998.3
2022-11-21T07:20:59.653Z,998.3
2022-11-21T07:21:59.672Z,998.3
2022-11-21T07:22:59.690Z,998.3
2022-11-21T07:23:59.697Z,998.3
2022-11-21T07:24:59.704Z,998.3
2022-11-21T07:25:59.701Z,998.4
2022-11-21T07:26:59.706Z,998.4
2022-11-21T07:27:59.713Z,998.4
2022-11-21T07:28:59.715Z,998.4
2022-11-21T07:29:59.722Z,998.4
2022-11-21T07:30:59.730Z,998.3
2022-11-21T07:31:59.736Z,998.4
2022-11-21T07:32:59.746Z,998.3
2022-11-21T07:33:59.746Z,998.3
2022-11-21T07:34:59.763Z,998.3
2022-11-21T07:35:59.762Z,998.2
2022-11-21T07:36:59.771Z,998.2
2022-11-21T07:37:59.773Z,998.3
2022-11-21T07:38:59.781Z,998.3
2022-11-21T07:39:59.781Z,998.3
2022-11-21T07:40:59.786Z,998.3
2022-11-21T07:41:59.797Z,998.3
2022-11-21T07:42:59.805Z,998.3
2022-11-21T07:43:59.803Z,998.3
2022-11-21T07:44:59.810Z,998.3
2022-11-21T07:45:59.824Z,998.3
2022-11-21T07:46:59.831Z,998.4
2022-11-21T07:47:59.835Z,998.4
2022-11-21T07:49:03.970Z,998.4
2022-11-21T07:49:59.850Z,998.3
2022-11-21T07:50:59.863Z,998.3
2022-11-21T07:51:59.859Z,998.3
2022-11-21T07:52:59.870Z,998.4
2022-11-21T07:53:59.884Z,998.4
2022-11-21T07:54:59.877Z,998.3
2022-11-21T07:55:59.892Z,998.3
2022-11-21T07:56:59.885Z,998.3
2022-11-21T07:57:59.897Z,998.3
2022-11-21T07:58:59.912Z,998.3
2022-11-21T07:59:59.911Z,998.3
2022-11-21T08:00:59.921Z,998.3
2022-11-21T08:02:00.006Z,998.3
2022-11-21T08:02:59.933Z,998.3
2022-11-21T08:03:59.943Z,998.2
2022-11-21T08:04:59.943Z,998.2
2022-11-21T08:05:59.959Z,998.2
2022-11-21T08:07:00.240Z,998.2
2022-11-21T08:07:59.982Z,998.2
2022-11-21T08:08:59.975Z,998.3
2022-11-21T08:09:59.987Z,998.2
2022-11-21T08:10:59.992Z,998.3
2022-11-21T08:12:00.002Z,998.3
2022-11-21T08:13:00.013Z,998.3
2022-11-21T08:14:00.009Z,998.3
2022-11-21T08:15:00.014Z,998.3
2022-11-21T08:16:00.043Z,998.2
2022-11-21T08:17:00.037Z,998.2
2022-11-21T08:18:00.046Z,998.1
2022-11-21T08:19:00.049Z,998.1
2022-11-21T08:20:00.057Z,998.2
2022-11-21T08:21:00.061Z,998.2
2022-11-21T08:22:00.112Z,998.1
2022-11-21T08:23:00.093Z,998.1
2022-11-21T08:24:00.085Z,998.1
2022-11-21T08:25:00.089Z,998.1
2022-11-21T08:26:00.182Z,998.0
2022-11-21T08:27:00.101Z,998.1
2022-11-21T08:28:00.119Z,998.1
2022-11-21T08:29:00.468Z,998.1
2022-11-21T08:30:00.163Z,998.2
2022-11-21T08:31:00.129Z,998.1
2022-11-21T08:32:00.150Z,998.1
2022-11-21T08:33:00.154Z,998.2
2022-11-21T08:34:00.143Z,998.1
2022-11-21T08:35:00.153Z,998.1
2022-11-21T08:36:00.167Z,998.2
2022-11-21T08:37:00.173Z,998.2
2022-11-21T08:38:00.178Z,998.1
2022-11-21T08:39:00.180Z,998.1
2022-11-21T08:40:00.197Z,998.2
2022-11-21T08:41:00.198Z,998.2
2022-11-21T08:42:00.204Z,998.2
2022-11-21T08:43:00.270Z,998.3
2022-11-21T08:44:00.220Z,998.2
2022-11-21T08:45:00.236Z,998.1
2022-11-21T08:46:00.233Z,998.1
2022-11-21T08:47:00.243Z,998.2
2022-11-21T08:48:00.251Z,998.1
2022-11-21T08:49:00.256Z,998.1
2022-11-21T08:50:09.016Z,998.1
2022-11-21T08:51:00.269Z,998.1
2022-11-21T08:52:00.279Z,998.2
2022-11-21T08:53:00.287Z,998.1
2022-11-21T08:54:00.305Z,998.2
2022-11-21T08:55:00.295Z,998.1
2022-11-21T08:56:04.780Z,998.1
2022-11-21T08:57:00.310Z,998.2
2022-11-21T08:58:00.320Z,998.1
2022-11-21T08:59:00.320Z,998.0
2022-11-21T09:00:00.333Z,998.0
2022-11-21T09:01:00.353Z,998.0
2022-11-21T09:02:00.488Z,998.0
2022-11-21T09:03:00.340Z,998.0
2022-11-21T09:04:00.350Z,998.0
2022-11-21T09:05:00.359Z,998.0
2022-11-21T09:06:00.397Z,998.0
2022-11-21T09:07:00.414Z,998.0
2022-11-21T09:08:00.376Z,998.0
2022-11-21T09:09:00.378Z,998.0
2022-11-21T09:10:00.393Z,998.0
2022-11-21T09:11:00.404Z,998.0
2022-11-21T09:12:00.403Z,998.0
2022-11-21T09:13:00.415Z,998.0
2022-11-21T09:14:00.410Z,998.1
2022-11-21T09:15:00.459Z,998.0
2022-11-21T09:16:00.435Z,998.1
2022-11-21T09:17:02.564Z,998.1
2022-11-21T09:18:00.436Z,998.1
2022-11-21T09:19:00.447Z,998.0
2022-11-21T09:20:00.654Z,998.1
2022-11-21T09:21:00.463Z,998.1
2022-11-21T09:22:00.463Z,998.1
2022-11-21T09:23:00.472Z,998.1
2022-11-21T09:24:00.479Z,998.2
2022-11-21T09:25:00.488Z,998.2
2022-11-21T09:26:00.497Z,998.2
2022-11-21T09:27:00.499Z,998.2
2022-11-21T09:28:00.502Z,998.2
2022-11-21T09:29:00.511Z,998.2
2022-11-21T09:30:00.525Z,998.2
2022-11-21T09:31:00.526Z,998.2
2022-11-21T09:32:00.534Z,998.2
2022-11-21T09:33:00.535Z,998.3
2022-11-21T09:34:00.537Z,998.2
2022-11-21T09:35:00.555Z,998.3
2022-11-21T09:36:00.559Z,998.2
2022-11-21T09:37:00.557Z,998.2
2022-11-21T09:38:00.579Z,998.2
2022-11-21T09:39:00.569Z,998.3
2022-11-21T09:40:00.583Z,998.2
2022-11-21T09:41:00.584Z,998.3
2022-11-21T09:42:00.588Z,998.3
2022-11-21T09:43:00.602Z,998.3
2022-11-21T09:44:00.604Z,998.3
2022-11-21T09:45:00.611Z,998.3
2022-11-21T09:46:00.615Z,998.3
2022-11-21T09:47:00.620Z,998.3
2022-11-21T09:48:00.629Z,998.3
2022-11-21T09:49:00.639Z,998.3
2022-11-21T09:50:00.641Z,998.3
2022-11-21T09:51:00.655Z,998.3
2022-11-21T09:52:00.662Z,998.3
2022-11-21T09:53:00.667Z,998.3
2022-11-21T09:54:00.673Z,998.2
2022-11-21T09:55:00.682Z,998.2
2022-11-21T09:56:00.678Z,998.2
2022-11-21T09:57:00.680Z,998.2
2022-11-21T09:58:00.701Z,998.2
2022-11-21T09:59:00.698Z,998.2
2022-11-21T10:00:00.706Z,998.2
2022-11-21T10:01:00.934Z,998.2
2022-11-21T10:02:00.719Z,998.3
2022-11-21T10:03:00.728Z,998.3
2022-11-21T10:04:00.729Z,998.2
2022-11-21T10:05:00.755Z,998.2
2022-11-21T10:06:00.736Z,998.2
2022-11-21T10:07:00.846Z,998.2
2022-11-21T10:08:00.748Z,998.2
2022-11-21T10:09:00.756Z,998.1
2022-11-21T10:10:00.764Z,998.2
2022-11-21T10:11:18.033Z,998.2
2022-11-21T10:12:00.777Z,998.2
2022-11-21T10:13:00.780Z,998.1
2022-11-21T10:14:00.792Z,998.1
2022-11-21T10:15:00.793Z,998.1
2022-11-21T10:16:00.801Z,998.2
2022-11-21T10:17:00.806Z,998.1
2022-11-21T10:18:00.810Z,998.2
2022-11-21T10:19:00.839Z,998.2
2022-11-21T10:20:00.822Z,998.1
2022-11-21T10:21:00.840Z,998.2
2022-11-21T10:22:00.851Z,998.2
2022-11-21T10:23:00.851Z,998.2
2022-11-21T10:24:00.858Z,998.2
2022-11-21T10:25:00.867Z,998.2
2022-11-21T10:26:00.880Z,998.2
2022-11-21T10:27:00.879Z,998.2
2022-11-21T10:28:00.889Z,998.2
2022-11-21T10:29:01.057Z,998.2
2022-11-21T10:30:00.911Z,998.2
2022-11-21T10:31:00.926Z,998.3
2022-11-21T10:32:00.955Z,998.2
2022-11-21T10:33:00.930Z,998.2
2022-11-21T10:34:00.995Z,998.2
2022-11-21T10:35:00.971Z,998.2
2022-11-21T10:36:00.985Z,998.1
2022-11-21T10:37:00.966Z,998.1
2022-11-21T10:38:00.992Z,998.0
2022-11-21T10:39:01.250Z,998.1
2022-11-21T10:40:01.001Z,998.0
2022-11-21T10:41:00.992Z,998.0
2022-11-21T10:42:01.023Z,998.0
2022-11-21T10:43:01.010Z,998.0
2022-11-21T10:44:01.015Z,998.1
2022-11-21T10:45:01.046Z,998.0
2022-11-21T10:46:01.020Z,998.0
2022-11-21T10:47:01.041Z,998.0
2022-11-21T10:48:08.249Z,998.1
2022-11-21T10:49:01.241Z,998.1
2022-11-21T10:50:01.064Z,998.0
2022-11-21T10:51:01.057Z,998.0
2022-11-21T10:52:01.085Z,998.0
2022-11-21T10:53:01.071Z,998.0
2022-11-21T10:54:08.171Z,998.0
2022-11-21T10:55:01.092Z,998.0
2022-11-21T10:56:01.121Z,998.0
2022-11-21T10:57:01.103Z,998.0
2022-11-21T10:58:01.109Z,998.0
2022-11-21T10:59:01.118Z,998.0
2022-11-21T11:00:01.117Z,998.0
2022-11-21T11:01:01.315Z,998.0
2022-11-21T11:02:01.140Z,998.0
2022-11-21T11:03:01.156Z,998.0
2022-11-21T11:04:27.089Z,998.0
2022-11-21T11:05:01.148Z,997.9
2022-11-21T11:06:01.161Z,997.9
2022-11-21T11:07:01.329Z,997.9
2022-11-21T11:08:01.178Z,997.9
2022-11-21T11:09:01.172Z,997.9
2022-11-21T11:10:01.183Z,997.9
2022-11-21T11:11:02.117Z,997.9
2022-11-21T11:12:01.189Z,997.9
2022-11-21T11:13:05.088Z,997.8
2022-11-21T11:14:01.211Z,997.8
2022-11-21T11:15:01.218Z,997.8
2022-11-21T11:16:01.235Z,997.9
2022-11-21T11:17:01.233Z,997.8
2022-11-21T11:18:09.537Z,997.9
2022-11-21T11:19:01.265Z,997.8
2022-11-21T11:20:01.263Z,997.7
2022-11-21T11:21:01.271Z,997.7
2022-11-21T11:22:01.276Z,997.8
2022-11-21T11:23:01.286Z,997.8
2022-11-21T11:24:01.293Z,997.7
2022-11-21T11:25:01.452Z,997.7
2022-11-21T11:26:01.307Z,997.7
2022-11-21T11:27:01.332Z,997.7
2022-11-21T11:28:01.318Z,997.7
2022-11-21T11:29:01.324Z,997.6
2022-11-21T11:30:01.339Z,997.7
2022-11-21T11:31:01.349Z,997.7
2022-11-21T11:32:01.354Z,997.7
2022-11-21T11:33:01.349Z,997.6
2022-11-21T11:34:01.365Z,997.8
2022-11-21T11:35:01.482Z,997.7
2022-11-21T11:36:01.392Z,997.7
2022-11-21T11:37:01.384Z,997.7
2022-11-21T11:38:01.384Z,997.6
2022-11-21T11:39:01.388Z,997.7
2022-11-21T11:40:01.399Z,997.6
2022-11-21T11:41:01.411Z,997.7
2022-11-21T11:42:01.414Z,997.7
2022-11-21T11:43:01.419Z,997.6
2022-11-21T11:44:01.425Z,997.6
2022-11-21T11:45:01.436Z,997.6
2022-11-21T11:46:01.450Z,997.6
2022-11-21T11:47:01.443Z,997.6
2022-11-21T11:48:01.458Z,997.5
2022-11-21T11:49:20.113Z,997.5
2022-11-21T11:50:01.487Z,997.5
2022-11-21T11:51:01.474Z,997.5
2022-11-21T11:52:01.473Z,997.5
2022-11-21T11:53:01.483Z,997.5
2022-11-21T11:54:01.656Z,997.5
2022-11-21T11:55:01.494Z,997.5
2022-11-21T11:56:01.511Z,997.5
2022-11-21T11:57:01.505Z,997.5
2022-11-21T11:58:01.513Z,997.4
2022-11-21T11:59:01.520Z,997.4
2022-11-21T12:00:01.525Z,997.4
2022-11-21T12:01:01.532Z,997.5
2022-11-21T12:02:01.637Z,997.4
2022-11-21T12:03:01.548Z,997.5
2022-11-21T12:04:01.566Z,997.4
2022-11-21T12:05:01.581Z,997.5
2022-11-21T12:06:09.112Z,997.5
2022-11-21T12:08:06.224Z,997.4
2022-11-21T12:09:01.683Z,997.5
2022-11-21T12:10:01.595Z,997.4
2022-11-21T12:11:01.604Z,997.4
2022-11-21T12:12:01.609Z,997.3
2022-11-21T12:13:01.615Z,997.3
2022-11-21T12:14:01.623Z,997.3
2022-11-21T12:15:01.629Z,997.3
2022-11-21T12:16:13.011Z,997.3
2022-11-21T12:17:01.641Z,997.3
2022-11-21T12:18:01.661Z,997.3
2022-11-21T12:19:01.660Z,997.2
2022-11-21T12:20:01.658Z,997.2
2022-11-21T12:21:01.665Z,997.2
2022-11-21T12:22:01.671Z,997.1
2022-11-21T12:23:01.677Z,997.2
2022-11-21T12:24:01.680Z,997.1
2022-11-21T12:25:01.695Z,997.0
2022-11-21T12:26:01.712Z,997.0
2022-11-21T12:27:01.704Z,997.0
2022-11-21T12:28:01.714Z,997.0
2022-11-21T12:29:01.722Z,997.0
2022-11-21T12:30:01.730Z,997.0
2022-11-21T12:31:01.746Z,997.0
2022-11-21T12:32:01.747Z,996.9
2022-11-21T12:33:08.716Z,996.9
2022-11-21T12:34:01.755Z,996.9
2022-11-21T12:35:01.758Z,996.9
2022-11-21T12:36:17.693Z,996.9
2022-11-21T12:37:01.773Z,996.9
2022-11-21T12:38:01.783Z,996.9
2022-11-21T12:39:01.787Z,996.9
2022-11-21T12:40:01.794Z,997.0
2022-11-21T12:41:01.802Z,996.9
2022-11-21T12:42:01.810Z,996.9
2022-11-21T12:43:01.810Z,996.9
2022-11-21T12:44:01.820Z,996.9
2022-11-21T12:45:01.830Z,997.0
2022-11-21T12:46:01.833Z,996.8
2022-11-21T12:47:01.837Z,996.8
2022-11-21T12:48:01.860Z,996.9
2022-11-21T12:49:01.853Z,996.9
2022-11-21T12:50:01.861Z,996.8
2022-11-21T12:51:01.881Z,996.8
2022-11-21T12:52:01.881Z,996.8
2022-11-21T12:53:01.894Z,996.7
2022-11-21T12:54:01.905Z,996.7
2022-11-21T12:55:01.915Z,996.7
2022-11-21T12:56:01.925Z,996.7
2022-11-21T12:57:01.930Z,996.6
2022-11-21T12:58:01.945Z,996.7
2022-11-21T12:59:01.946Z,996.6
2022-11-21T13:00:01.962Z,996.6
2022-11-21T13:01:02.079Z,996.7
2022-11-21T13:02:02.019Z,996.6
2022-11-21T13:03:01.969Z,996.7
2022-11-21T13:04:01.978Z,996.6
2022-11-21T13:05:01.984Z,996.6
2022-11-21T13:06:01.988Z,996.6
2022-11-21T13:07:02.086Z,996.7
2022-11-21T13:08:02.002Z,996.7
2022-11-21T13:09:02.015Z,996.6
2022-11-21T13:10:02.016Z,996.6
2022-11-21T13:11:02.022Z,996.6
2022-11-21T13:12:02.055Z,996.6